createdAt,value
2022-12-31T00:00:00.730Z,87.30
2022-12-31T00:05:10.346Z,94.60
2022-12-31T00:10:17.324Z,81.60
2022-12-31T00:15:24.887Z,59.50
2022-12-31T00:20:31.968Z,56.40
2022-12-31T00:25:39.151Z,51.90
2022-12-31T00:30:46.091Z,51.90
2022-12-31T00:35:53.023Z,43.40
2022-12-31T00:40:59.935Z,45.20
2022-12-31T00:46:08.409Z,40.60
2022-12-31T00:51:17.817Z,35.40
2022-12-31T00:56:27.095Z,38.50
2022-12-31T01:01:36.384Z,36.10
2022-12-31T01:06:44.367Z,30.90
2022-12-31T01:11:53.104Z,31.80
2022-12-31T01:17:00.568Z,29.70
2022-12-31T01:22:07.486Z,26.90
2022-12-31T01:27:14.338Z,27.90
2022-12-31T01:32:21.186Z,28.30
2022-12-31T01:37:29.016Z,21.90
2022-12-31T01:42:35.987Z,22.40
2022-12-31T01:47:47.729Z,24.60
2022-12-31T01:52:58.104Z,20.60
2022-12-31T01:58:09.571Z,20.90
2022-12-31T02:03:17.276Z,17.00
2022-12-31T02:08:24.328Z,18.20
2022-12-31T02:13:31.435Z,18.10
2022-12-31T02:18:45.053Z,17.00
2022-12-31T02:24:19.501Z,14.50
2022-12-31T02:30:00.142Z,18.00
2022-12-31T02:35:13.465Z,15.60
2022-12-31T02:40:23.273Z,13.90
2022-12-31T02:45:39.074Z,15.40
2022-12-31T02:50:59.429Z,15.70
2022-12-31T02:56:13.149Z,13.60
2022-12-31T03:01:50.403Z,15.30
2022-12-31T03:06:57.640Z,11.70
2022-12-31T03:12:24.292Z,12.60
2022-12-31T03:17:31.218Z,11.60
2022-12-31T03:22:41.701Z,14.20
2022-12-31T03:27:48.846Z,13.50
2022-12-31T03:32:57.614Z,10.30
2022-12-31T03:38:05.211Z,11.30
2022-12-31T03:43:12.744Z,9.50
2022-12-31T03:48:20.006Z,8.50
2022-12-31T03:53:27.509Z,7.20
2022-12-31T03:58:34.559Z,11.30
2022-12-31T04:03:41.515Z,8.70
2022-12-31T04:08:48.471Z,7.50
2022-12-31T04:13:55.252Z,8.20
2022-12-31T04:19:02.121Z,8.50
2022-12-31T04:24:10.252Z,11.60
2022-12-31T04:29:17.112Z,7.90
2022-12-31T04:34:24.069Z,9.00
2022-12-31T04:39:31.271Z,10.30
2022-12-31T04:44:38.101Z,9.00
2022-12-31T04:49:44.959Z,9.90
2022-12-31T04:54:52.035Z,9.40
2022-12-31T04:59:59.723Z,8.90
2022-12-31T05:05:07.387Z,8.60
2022-12-31T05:10:16.002Z,7.30
2022-12-31T05:15:22.943Z,7.10
2022-12-31T05:20:30.048Z,8.00
2022-12-31T05:25:37.067Z,8.80
2022-12-31T05:30:45.052Z,8.90
2022-12-31T05:35:52.330Z,8.20
2022-12-31T05:41:07.024Z,9.80
2022-12-31T05:46:13.994Z,7.40
2022-12-31T05:51:20.902Z,8.70
2022-12-31T05:56:27.778Z,8.90
2022-12-31T06:01:34.761Z,24.80
2022-12-31T06:06:41.755Z,7.60
2022-12-31T06:11:48.939Z,7.80
2022-12-31T06:16:55.875Z,6.80
2022-12-31T06:22:03.225Z,6.80
2022-12-31T06:27:11.024Z,7.50
2022-12-31T06:32:18.572Z,7.50
2022-12-31T06:37:25.478Z,8.00
2022-12-31T06:42:32.741Z,6.20
2022-12-31T06:47:39.711Z,6.60
2022-12-31T06:52:46.576Z,6.00
2022-12-31T06:57:54.469Z,8.30
2022-12-31T07:03:26.831Z,7.80
2022-12-31T07:08:43.753Z,9.70
2022-12-31T07:13:59.987Z,6.80
2022-12-31T07:19:16.479Z,9.60
2022-12-31T07:24:25.544Z,6.70
2022-12-31T07:29:49.527Z,9.80
2022-12-31T07:35:04.739Z,8.50
2022-12-31T07:40:19.655Z,27.30
2022-12-31T07:45:34.777Z,12.60
2022-12-31T07:50:42.611Z,10.00
2022-12-31T07:55:53.473Z,15.60
2022-12-31T08:01:01.157Z,6.50
2022-12-31T08:06:17.913Z,7.60
2022-12-31T08:11:36.249Z,6.20
2022-12-31T08:16:44.475Z,7.10
2022-12-31T08:22:05.765Z,8.70
2022-12-31T08:27:21.807Z,12.60
2022-12-31T08:32:35.209Z,5.70
2022-12-31T08:37:45.717Z,5.20
2022-12-31T08:43:08.460Z,4.30
2022-12-31T08:48:26.611Z,3.90
2022-12-31T08:53:35.053Z,6.00
2022-12-31T08:58:52.572Z,3.80
2022-12-31T09:04:12.568Z,5.40
2022-12-31T09:09:28.355Z,8.10
2022-12-31T09:14:48.288Z,4.80
2022-12-31T09:19:56.405Z,7.40
2022-12-31T09:25:03.937Z,3.40
2022-12-31T09:30:22.745Z,4.90
2022-12-31T09:35:35.951Z,3.70
2022-12-31T09:41:12.631Z,4.30
2022-12-31T09:47:07.551Z,4.70
2022-12-31T09:52:34.882Z,6.70
2022-12-31T09:57:54.939Z,7.90
2022-12-31T10:03:23.082Z,5.30
2022-12-31T10:08:48.023Z,5.50
2022-12-31T10:14:10.511Z,3.10
2022-12-31T10:19:41.296Z,3.70
2022-12-31T10:25:37.678Z,3.60
2022-12-31T10:31:05.610Z,2.60
2022-12-31T10:36:21.690Z,4.00
2022-12-31T10:41:54.659Z,6.70
2022-12-31T10:47:33.056Z,6.50
2022-12-31T10:53:18.337Z,9.00
2022-12-31T10:58:55.090Z,4.00
2022-12-31T11:04:31.557Z,66.90
2022-12-31T11:10:17.235Z,19.20
2022-12-31T11:15:53.401Z,6.30
2022-12-31T11:21:16.317Z,6.70
2022-12-31T11:26:41.057Z,47.20
2022-12-31T11:32:07.688Z,8.10
2022-12-31T11:37:30.151Z,39.40
2022-12-31T11:42:47.808Z,21.70
2022-12-31T11:48:29.752Z,8.80
2022-12-31T11:53:57.548Z,5.10
2022-12-31T11:59:18.894Z,5.60
2022-12-31T12:04:26.392Z,4.90
2022-12-31T12:09:35.616Z,5.70
2022-12-31T12:14:45.439Z,5.50
2022-12-31T12:19:58.445Z,23.20
2022-12-31T12:25:17.035Z,3.80
2022-12-31T12:30:26.919Z,6.00
2022-12-31T12:35:36.228Z,5.40
2022-12-31T12:40:53.316Z,5.10
2022-12-31T12:46:07.647Z,3.90
2022-12-31T12:51:26.869Z,4.50
2022-12-31T12:56:43.279Z,2.90
2022-12-31T13:01:57.622Z,5.30
2022-12-31T13:07:15.561Z,3.60
2022-12-31T13:12:37.839Z,6.60
2022-12-31T13:18:05.148Z,13.40
2022-12-31T13:23:20.767Z,6.70
2022-12-31T13:28:29.026Z,8.30
2022-12-31T13:33:38.843Z,5.90
2022-12-31T13:38:50.103Z,5.70
2022-12-31T13:44:04.392Z,8.40
2022-12-31T13:49:20.948Z,8.20
2022-12-31T13:54:39.922Z,7.20
2022-12-31T13:59:52.843Z,6.30
2022-12-31T14:05:06.079Z,8.20
2022-12-31T14:10:17.421Z,7.10
2022-12-31T14:15:30.116Z,5.60
2022-12-31T14:20:48.043Z,5.30
2022-12-31T14:26:00.873Z,4.20
2022-12-31T14:31:21.216Z,3.50
2022-12-31T14:36:41.865Z,7.10
2022-12-31T14:41:59.164Z,6.30
2022-12-31T14:47:23.028Z,12.10
2022-12-31T14:52:33.011Z,4.20
2022-12-31T14:58:17.249Z,26.90
2022-12-31T15:03:26.838Z,18.60
2022-12-31T15:08:50.422Z,8.30
2022-12-31T15:14:21.117Z,8.90
2022-12-31T15:25:36.972Z,9.80
2022-12-31T15:30:49.662Z,6.20
2022-12-31T15:35:58.775Z,8.90
2022-12-31T15:41:16.965Z,6.20
2022-12-31T15:46:27.465Z,10.50
2022-12-31T15:51:39.937Z,11.50
2022-12-31T15:56:49.476Z,24.20
2022-12-31T16:01:58.129Z,8.40
2022-12-31T16:07:05.833Z,10.20
2022-12-31T16:12:20.335Z,7.00
2022-12-31T16:17:31.668Z,14.90
2022-12-31T16:22:40.967Z,30.00
2022-12-31T16:27:49.547Z,11.00
2022-12-31T16:33:00.195Z,12.20
2022-12-31T16:38:15.400Z,7.30
2022-12-31T16:43:37.821Z,8.90
2022-12-31T16:48:48.436Z,7.80
2022-12-31T16:53:55.633Z,8.70
2022-12-31T16:59:05.870Z,28.30
2022-12-31T17:04:18.494Z,49.80
2022-12-31T17:09:38.136Z,18.70
2022-12-31T17:14:52.623Z,8.80
2022-12-31T17:20:02.216Z,9.90
2022-12-31T17:25:32.431Z,10.20
2022-12-31T17:30:44.529Z,12.10
2022-12-31T17:36:16.539Z,9.60
2022-12-31T17:41:31.208Z,15.50
2022-12-31T17:46:44.021Z,14.10
2022-12-31T17:51:50.943Z,18.10
2022-12-31T17:56:59.307Z,14.30
2022-12-31T18:02:14.054Z,10.30
2022-12-31T18:07:21.567Z,17.10
2022-12-31T18:12:28.877Z,12.70
2022-12-31T18:17:36.248Z,7.30
2022-12-31T18:28:17.574Z,17.30
2022-12-31T18:33:32.316Z,6.70
2022-12-31T18:38:40.613Z,7.50
2022-12-31T18:43:48.521Z,8.20
2022-12-31T18:48:55.445Z,9.50
2022-12-31T18:54:03.176Z,9.90
2022-12-31T18:59:10.767Z,9.00
2022-12-31T19:04:27.103Z,6.90
2022-12-31T19:09:56.301Z,7.40
2022-12-31T19:15:02.699Z,8.30
2022-12-31T19:20:10.829Z,5.20
2022-12-31T19:25:22.062Z,5.20
2022-12-31T19:30:32.315Z,6.20
2022-12-31T19:35:44.233Z,6.20
2022-12-31T19:40:57.237Z,7.90
2022-12-31T19:46:16.640Z,6.80
2022-12-31T19:51:24.562Z,9.00
2022-12-31T19:56:31.710Z,7.70
2022-12-31T20:01:39.580Z,6.40
2022-12-31T20:06:46.817Z,9.70
2022-12-31T20:11:54.070Z,6.20
2022-12-31T20:17:01.090Z,7.10
2022-12-31T20:22:08.829Z,7.30
2022-12-31T20:27:18.568Z,7.60
2022-12-31T20:32:25.917Z,10.60
2022-12-31T20:37:32.966Z,9.60
2022-12-31T20:42:40.861Z,11.10
2022-12-31T20:47:48.515Z,7.30
2022-12-31T20:52:56.741Z,8.20
2022-12-31T20:58:06.331Z,9.70
2022-12-31T21:03:36.841Z,7.40
2022-12-31T21:08:43.310Z,14.20
2022-12-31T21:13:57.535Z,8.30
2022-12-31T21:19:10.147Z,8.40
2022-12-31T21:24:23.771Z,9.40
2022-12-31T21:29:34.950Z,10.50
2022-12-31T21:34:43.884Z,9.30
2022-12-31T21:39:50.904Z,60.50
2022-12-31T21:45:06.377Z,19.00
2022-12-31T21:50:16.339Z,53.60
2022-12-31T21:55:44.519Z,24.60
2022-12-31T22:01:28.348Z,14.00
2022-12-31T22:06:39.845Z,16.60
2022-12-31T22:11:46.704Z,14.50
2022-12-31T22:16:53.678Z,11.20
2022-12-31T22:22:00.569Z,10.70
2022-12-31T22:27:28.816Z,15.30
2022-12-31T22:32:34.697Z,22.00
2022-12-31T22:38:01.595Z,19.90
2022-12-31T22:43:08.757Z,15.70
2022-12-31T22:48:15.665Z,15.50
2022-12-31T22:53:22.684Z,16.50
2022-12-31T22:58:29.637Z,12.80
2022-12-31T23:03:38.272Z,13.40
2022-12-31T23:09:05.869Z,42.80
2022-12-31T23:14:35.853Z,59.60
2022-12-31T23:20:01.476Z,45.80
2022-12-31T23:25:09.490Z,67.20
2022-12-31T23:30:16.835Z,78.10
2022-12-31T23:35:23.917Z,77.90
2022-12-31T23:40:35.395Z,82.80
2022-12-31T23:45:45.121Z,91.30
2022-12-31T23:50:54.137Z,87.30
2022-12-31T23:56:13.889Z,90.00
